createdAt,value
2022-10-31T00:01:24.175Z,17.90
2022-10-31T00:03:51.139Z,20.25
2022-10-31T00:06:21.089Z,19.70
2022-10-31T00:09:00.082Z,19.98
2022-10-31T00:11:27.664Z,21.58
2022-10-31T00:13:55.146Z,20.45
2022-10-31T00:16:25.555Z,22.33
2022-10-31T00:18:57.914Z,23.53
2022-10-31T00:21:26.487Z,22.25
2022-10-31T00:23:53.738Z,25.77
2022-10-31T00:26:20.947Z,23.80
2022-10-31T00:28:48.216Z,20.40
2022-10-31T00:31:15.827Z,18.33
2022-10-31T00:33:43.225Z,18.73
2022-10-31T00:36:16.004Z,20.67
2022-10-31T00:38:43.638Z,18.80
2022-10-31T00:41:16.986Z,21.00
2022-10-31T00:43:44.828Z,19.37
2022-10-31T00:46:13.254Z,25.50
2022-10-31T00:48:40.461Z,22.10
2022-10-31T00:51:07.767Z,22.13
2022-10-31T00:53:34.927Z,19.50
2022-10-31T00:56:01.799Z,19.70
2022-10-31T00:58:28.688Z,21.23
2022-10-31T01:00:56.307Z,20.83
2022-10-31T01:03:30.275Z,24.75
2022-10-31T01:06:12.634Z,22.33
2022-10-31T01:08:40.115Z,19.37
2022-10-31T01:11:23.921Z,21.88
2022-10-31T01:13:55.200Z,22.85
2022-10-31T01:16:26.234Z,23.45
2022-10-31T01:18:54.227Z,24.27
2022-10-31T01:21:25.213Z,23.47
2022-10-31T01:23:55.473Z,21.50
2022-10-31T01:26:28.918Z,20.55
2022-10-31T01:28:59.221Z,21.83
2022-10-31T01:31:30.819Z,19.50
2022-10-31T01:33:58.724Z,20.13
2022-10-31T01:36:32.337Z,19.65
2022-10-31T01:39:03.070Z,24.80
2022-10-31T01:41:33.538Z,24.55
2022-10-31T01:44:12.989Z,23.25
2022-10-31T01:47:08.521Z,19.73
2022-10-31T01:49:56.122Z,20.17
2022-10-31T01:52:37.674Z,18.88
2022-10-31T01:55:07.950Z,20.02
2022-10-31T01:57:39.164Z,22.67
2022-10-31T02:00:10.632Z,21.67
2022-10-31T02:02:37.613Z,20.48
2022-10-31T02:05:10.750Z,18.27
2022-10-31T02:07:55.678Z,20.05
2022-10-31T02:10:24.162Z,19.40
2022-10-31T02:12:57.775Z,20.93
2022-10-31T02:15:25.063Z,21.08
2022-10-31T02:17:52.900Z,20.67
2022-10-31T02:20:26.324Z,18.30
2022-10-31T02:23:36.527Z,19.80
2022-10-31T02:26:18.457Z,22.20
2022-10-31T02:29:09.868Z,18.90
2022-10-31T02:32:02.183Z,18.42
2022-10-31T02:34:55.766Z,18.83
2022-10-31T02:37:51.194Z,19.02
2022-10-31T02:40:31.885Z,18.60
2022-10-31T02:43:29.988Z,19.85
2022-10-31T02:46:16.285Z,19.73
2022-10-31T02:48:46.031Z,21.85
2022-10-31T02:51:13.742Z,21.33
2022-10-31T02:53:40.727Z,21.57
2022-10-31T02:56:17.047Z,18.90
2022-10-31T02:59:01.983Z,17.58
2022-10-31T03:02:13.917Z,22.05
2022-10-31T03:05:23.967Z,20.00
2022-10-31T03:08:09.795Z,17.73
2022-10-31T03:10:45.263Z,17.65
2022-10-31T03:13:25.407Z,20.00
2022-10-31T03:16:07.425Z,17.05
2022-10-31T03:18:44.393Z,20.27
2022-10-31T03:21:21.072Z,21.70
2022-10-31T03:23:51.846Z,21.42
2022-10-31T03:26:21.105Z,18.20
2022-10-31T03:29:03.274Z,17.23
2022-10-31T03:31:39.850Z,17.83
2022-10-31T03:34:09.123Z,18.17
2022-10-31T03:36:39.696Z,19.73
2022-10-31T03:39:11.654Z,19.38
2022-10-31T03:41:46.090Z,19.40
2022-10-31T03:44:20.002Z,15.43
2022-10-31T03:46:47.254Z,18.77
2022-10-31T03:49:15.175Z,19.63
2022-10-31T03:52:00.419Z,19.23
2022-10-31T03:54:44.552Z,22.02
2022-10-31T03:57:39.992Z,20.67
2022-10-31T04:00:13.681Z,16.67
2022-10-31T04:03:00.618Z,17.35
2022-10-31T04:05:29.530Z,19.90
2022-10-31T04:07:58.788Z,16.88
2022-10-31T04:10:31.993Z,19.02
2022-10-31T04:13:09.381Z,19.13
2022-10-31T04:15:38.431Z,18.92
2022-10-31T04:18:06.566Z,19.65
2022-10-31T04:20:36.891Z,17.70
2022-10-31T04:23:04.907Z,17.10
2022-10-31T04:25:32.090Z,20.63
2022-10-31T04:27:59.326Z,20.27
2022-10-31T04:30:26.482Z,18.58
2022-10-31T04:32:53.354Z,15.82
2022-10-31T04:35:20.240Z,19.35
2022-10-31T04:37:47.124Z,18.93
2022-10-31T04:40:14.046Z,17.48
2022-10-31T04:42:40.923Z,19.83
2022-10-31T04:45:08.195Z,17.77
2022-10-31T04:47:35.107Z,19.27
2022-10-31T04:50:03.101Z,18.87
2022-10-31T04:52:30.009Z,17.83
2022-10-31T04:54:56.883Z,17.60
2022-10-31T04:57:23.779Z,18.85
2022-10-31T04:59:50.781Z,17.33
2022-10-31T05:02:17.659Z,17.33
2022-10-31T05:04:44.583Z,19.55
2022-10-31T05:07:11.509Z,19.50
2022-10-31T05:09:39.158Z,16.52
2022-10-31T05:12:06.203Z,19.13
2022-10-31T05:14:33.074Z,16.60
2022-10-31T05:16:59.934Z,19.58
2022-10-31T05:19:26.797Z,17.40
2022-10-31T05:21:53.688Z,20.52
2022-10-31T05:24:22.585Z,17.10
2022-10-31T05:26:50.452Z,26.33
2022-10-31T05:29:17.509Z,20.25
2022-10-31T05:31:44.387Z,22.17
2022-10-31T05:34:11.277Z,25.02
2022-10-31T05:36:38.213Z,19.98
2022-10-31T05:39:05.113Z,24.47
2022-10-31T05:41:32.155Z,20.33
2022-10-31T05:43:59.023Z,27.88
2022-10-31T05:46:25.960Z,39.47
2022-10-31T05:48:52.862Z,40.63
2022-10-31T05:51:19.738Z,40.67
2022-10-31T05:53:48.424Z,52.20
2022-10-31T05:56:15.302Z,56.42
2022-10-31T05:58:42.204Z,48.92
2022-10-31T06:01:09.141Z,74.25
2022-10-31T06:03:36.069Z,61.07
2022-10-31T06:06:03.237Z,78.38
2022-10-31T06:08:30.138Z,91.78
2022-10-31T06:10:57.136Z,53.65
2022-10-31T06:13:24.089Z,57.53
2022-10-31T06:15:51.075Z,42.37
2022-10-31T06:18:17.989Z,50.75
2022-10-31T06:20:44.867Z,37.83
2022-10-31T06:23:11.850Z,35.38
2022-10-31T06:25:38.777Z,53.28
2022-10-31T06:28:06.103Z,34.87
2022-10-31T06:30:33.106Z,42.55
2022-10-31T06:33:05.187Z,44.72
2022-10-31T06:35:32.991Z,35.90
2022-10-31T06:38:00.625Z,41.47
2022-10-31T06:40:27.848Z,48.80
2022-10-31T06:43:00.080Z,46.42
2022-10-31T06:45:27.589Z,37.53
2022-10-31T06:48:16.068Z,43.00
2022-10-31T06:50:43.212Z,42.08
2022-10-31T06:53:12.139Z,29.67
2022-10-31T06:55:39.399Z,45.35
2022-10-31T06:58:06.801Z,41.50
2022-10-31T07:00:34.435Z,67.05
2022-10-31T07:03:05.907Z,62.72
2022-10-31T07:05:33.200Z,55.87
2022-10-31T07:08:05.927Z,52.35
2022-10-31T07:10:39.083Z,59.28
2022-10-31T07:13:13.372Z,49.65
2022-10-31T07:15:43.086Z,34.90
2022-10-31T07:18:12.833Z,47.10
2022-10-31T07:20:39.758Z,76.00
2022-10-31T07:23:06.970Z,58.13
2022-10-31T07:25:33.983Z,57.50
2022-10-31T07:28:01.211Z,52.03
2022-10-31T07:30:28.425Z,68.83
2022-10-31T07:32:56.304Z,52.10
2022-10-31T07:35:27.553Z,66.78
2022-10-31T07:37:55.636Z,55.65
2022-10-31T07:40:23.977Z,60.72
2022-10-31T07:42:53.456Z,52.20
2022-10-31T07:45:22.286Z,32.95
2022-10-31T07:47:52.294Z,46.42
2022-10-31T07:50:28.036Z,76.78
2022-10-31T07:53:07.996Z,58.88
2022-10-31T07:55:35.561Z,46.83
2022-10-31T07:58:05.994Z,60.38
2022-10-31T08:00:35.505Z,48.40
2022-10-31T08:03:08.429Z,39.22
2022-10-31T08:05:36.318Z,45.10
2022-10-31T08:08:05.027Z,42.73
2022-10-31T08:10:33.008Z,57.03
2022-10-31T08:13:12.042Z,39.28
2022-10-31T08:15:42.103Z,39.08
2022-10-31T08:18:14.892Z,35.45
2022-10-31T08:20:45.477Z,44.97
2022-10-31T08:23:14.516Z,36.45
2022-10-31T08:25:42.727Z,52.17
2022-10-31T08:28:11.999Z,62.35
2022-10-31T08:30:40.420Z,41.45
2022-10-31T08:33:14.388Z,42.97
2022-10-31T08:35:42.288Z,37.80
2022-10-31T08:38:12.311Z,47.17
2022-10-31T08:40:40.113Z,41.83
2022-10-31T08:43:15.044Z,46.50
2022-10-31T08:45:43.749Z,44.07
2022-10-31T08:48:13.818Z,43.42
2022-10-31T08:50:41.047Z,48.08
2022-10-31T08:53:15.308Z,50.33
2022-10-31T08:55:43.972Z,43.22
2022-10-31T08:58:14.524Z,36.90
2022-10-31T09:00:42.281Z,39.70
2022-10-31T09:03:21.811Z,40.65
2022-10-31T09:05:49.146Z,33.97
2022-10-31T09:08:17.328Z,42.08
2022-10-31T09:10:45.849Z,49.23
2022-10-31T09:13:16.674Z,47.28
2022-10-31T09:15:46.747Z,42.97
2022-10-31T09:18:15.826Z,43.42
2022-10-31T09:20:45.023Z,45.50
2022-10-31T09:23:20.849Z,44.97
2022-10-31T09:25:51.025Z,42.20
2022-10-31T09:28:22.003Z,41.20
2022-10-31T09:30:52.022Z,47.60
2022-10-31T09:33:20.033Z,45.92
2022-10-31T09:35:47.081Z,43.53
2022-10-31T09:38:19.830Z,42.70
2022-10-31T09:40:56.181Z,44.58
2022-10-31T09:43:57.700Z,45.53
2022-10-31T09:46:58.042Z,49.50
2022-10-31T09:50:02.008Z,44.60
2022-10-31T09:52:33.311Z,42.60
2022-10-31T09:55:26.132Z,46.15
2022-10-31T09:57:53.336Z,42.17
2022-10-31T10:00:23.250Z,46.88
2022-10-31T10:02:59.041Z,43.00
2022-10-31T10:05:35.255Z,40.20
2022-10-31T10:08:15.366Z,39.20
2022-10-31T10:11:25.350Z,45.03
2022-10-31T10:14:16.257Z,42.13
2022-10-31T10:17:23.266Z,43.37
2022-10-31T10:20:29.550Z,43.45
2022-10-31T10:23:30.887Z,43.00
2022-10-31T10:26:18.283Z,41.20
2022-10-31T10:28:53.014Z,30.10
2022-10-31T10:31:29.322Z,33.27
2022-10-31T10:34:06.565Z,34.97
2022-10-31T10:36:59.149Z,29.40
2022-10-31T10:39:39.359Z,32.95
2022-10-31T10:42:32.785Z,32.72
2022-10-31T10:45:18.822Z,29.33
2022-10-31T10:47:56.234Z,33.72
2022-10-31T10:50:33.619Z,27.77
2022-10-31T10:53:36.488Z,29.73
2022-10-31T10:56:40.826Z,25.60
2022-10-31T10:59:14.487Z,29.80
2022-10-31T11:01:43.220Z,27.25
2022-10-31T11:04:31.490Z,28.75
2022-10-31T11:07:10.793Z,25.75
2022-10-31T11:09:38.953Z,30.33
2022-10-31T11:12:31.462Z,27.80
2022-10-31T11:15:24.486Z,27.25
2022-10-31T11:17:55.323Z,26.23
2022-10-31T11:20:31.273Z,26.20
2022-10-31T11:23:22.310Z,26.13
2022-10-31T11:25:52.342Z,30.77
2022-10-31T11:28:19.277Z,28.77
2022-10-31T11:30:50.354Z,27.65
2022-10-31T11:33:36.578Z,27.65
2022-10-31T11:36:25.570Z,30.10
2022-10-31T11:38:54.031Z,29.13
2022-10-31T11:41:34.757Z,32.20
2022-10-31T11:44:17.465Z,32.13
2022-10-31T11:46:49.883Z,31.05
2022-10-31T11:49:36.822Z,30.10
2022-10-31T11:52:14.962Z,31.60
2022-10-31T11:55:12.377Z,31.02
2022-10-31T11:57:52.899Z,30.85
2022-10-31T12:00:30.549Z,36.13
2022-10-31T12:03:25.027Z,37.33
2022-10-31T12:06:18.775Z,38.67
2022-10-31T12:08:46.636Z,40.67
2022-10-31T12:11:36.565Z,36.15
2022-10-31T12:14:35.338Z,39.25
2022-10-31T12:17:25.988Z,34.92
2022-10-31T12:20:08.098Z,37.30
2022-10-31T12:22:49.619Z,35.30
2022-10-31T12:25:42.087Z,41.33
2022-10-31T12:28:44.921Z,42.65
2022-10-31T12:31:42.451Z,38.75
2022-10-31T12:34:46.178Z,39.20
2022-10-31T12:38:04.077Z,39.30
2022-10-31T12:40:57.261Z,39.75
2022-10-31T12:43:56.561Z,35.15
2022-10-31T12:46:58.057Z,36.97
2022-10-31T12:49:53.280Z,38.17
2022-10-31T12:52:32.231Z,38.90
2022-10-31T12:55:25.208Z,33.63
2022-10-31T12:58:00.430Z,39.17
2022-10-31T13:00:30.489Z,34.88
2022-10-31T13:03:23.255Z,33.13
2022-10-31T13:05:57.686Z,37.38
2022-10-31T13:08:36.875Z,35.75
2022-10-31T13:11:16.982Z,39.97
2022-10-31T13:14:12.447Z,35.75
2022-10-31T13:16:45.176Z,42.33
2022-10-31T13:19:22.432Z,38.67
2022-10-31T13:22:05.232Z,40.92
2022-10-31T13:24:42.725Z,40.30
2022-10-31T13:27:21.747Z,40.25
2022-10-31T13:30:05.105Z,47.03
2022-10-31T13:32:57.350Z,42.50
2022-10-31T13:35:33.071Z,44.85
2022-10-31T13:38:41.127Z,38.45
2022-10-31T13:41:36.155Z,46.78
2022-10-31T13:44:14.533Z,43.97
2022-10-31T13:49:30.649Z,41.42
2022-10-31T13:52:13.125Z,40.35
2022-10-31T13:54:42.224Z,48.10
2022-10-31T13:57:19.919Z,46.00
2022-10-31T14:00:16.124Z,40.58
2022-10-31T14:02:50.039Z,46.00
2022-10-31T14:05:34.703Z,37.30
2022-10-31T14:08:05.088Z,44.17
2022-10-31T14:10:50.935Z,40.60
2022-10-31T14:13:42.551Z,39.88
2022-10-31T14:16:31.028Z,48.67
2022-10-31T14:19:09.291Z,40.35
2022-10-31T14:21:43.129Z,40.30
2022-10-31T14:24:31.724Z,40.70
2022-10-31T14:27:04.005Z,40.25
2022-10-31T14:29:34.079Z,40.80
2022-10-31T14:32:20.871Z,46.42
2022-10-31T14:35:01.405Z,40.80
2022-10-31T14:37:34.832Z,45.50
2022-10-31T14:40:44.886Z,41.40
2022-10-31T14:43:37.963Z,50.10
2022-10-31T14:46:33.559Z,41.28
2022-10-31T14:49:11.943Z,42.05
2022-10-31T14:51:45.162Z,44.00
2022-10-31T14:54:31.228Z,43.78
2022-10-31T14:57:13.649Z,42.28
2022-10-31T14:59:56.838Z,41.80
2022-10-31T15:02:39.160Z,51.22
2022-10-31T15:05:12.254Z,50.30
2022-10-31T15:07:59.563Z,41.60
2022-10-31T15:10:32.873Z,43.38
2022-10-31T15:13:20.853Z,43.88
2022-10-31T15:15:52.016Z,43.55
2022-10-31T15:18:27.509Z,40.07
2022-10-31T15:20:57.167Z,41.25
2022-10-31T15:23:30.110Z,46.58
2022-10-31T15:26:06.167Z,45.45
2022-10-31T15:28:33.290Z,46.65
2022-10-31T15:31:03.036Z,42.43
2022-10-31T15:33:47.878Z,47.67
2022-10-31T15:36:29.207Z,45.13
2022-10-31T15:38:58.682Z,46.47
2022-10-31T15:41:56.450Z,41.25
2022-10-31T15:44:30.853Z,49.20
2022-10-31T15:47:19.591Z,45.97
2022-10-31T15:49:54.984Z,46.25
2022-10-31T15:52:41.106Z,43.83
2022-10-31T15:55:10.651Z,43.53
2022-10-31T15:57:43.946Z,47.77
2022-10-31T16:00:34.617Z,41.97
2022-10-31T16:03:16.564Z,44.40
2022-10-31T16:05:52.895Z,42.95
2022-10-31T16:08:32.142Z,44.20
2022-10-31T16:11:07.953Z,40.87
2022-10-31T16:13:42.198Z,41.40
2022-10-31T16:16:35.726Z,41.03
2022-10-31T16:19:06.982Z,44.70
2022-10-31T16:21:38.394Z,40.00
2022-10-31T16:24:25.833Z,43.00
2022-10-31T16:26:59.106Z,39.22
2022-10-31T16:29:40.621Z,41.58
2022-10-31T16:32:36.341Z,40.45
2022-10-31T16:35:09.239Z,41.30
2022-10-31T16:37:39.687Z,41.13
2022-10-31T16:40:07.562Z,41.08
2022-10-31T16:42:34.463Z,40.95
2022-10-31T16:45:01.516Z,39.03
2022-10-31T16:47:28.660Z,40.80
2022-10-31T16:50:00.616Z,46.30
2022-10-31T16:52:28.342Z,41.28
2022-10-31T16:54:58.334Z,41.40
2022-10-31T16:57:30.912Z,38.40
2022-10-31T16:59:58.760Z,42.78
2022-10-31T17:02:26.153Z,39.93
2022-10-31T17:04:55.799Z,44.08
2022-10-31T17:07:23.857Z,47.72
2022-10-31T17:09:50.746Z,46.55
2022-10-31T17:12:23.005Z,44.80
2022-10-31T17:14:52.915Z,47.40
2022-10-31T17:17:19.813Z,51.42
2022-10-31T17:19:46.816Z,46.35
2022-10-31T17:22:15.519Z,48.40
2022-10-31T17:24:42.597Z,46.30
2022-10-31T17:27:09.718Z,46.40
2022-10-31T17:29:36.726Z,56.80
2022-10-31T17:32:04.202Z,56.90
2022-10-31T17:34:31.729Z,50.22
2022-10-31T17:36:58.722Z,50.38
2022-10-31T17:39:25.965Z,46.20
2022-10-31T17:41:53.056Z,49.50
2022-10-31T17:44:20.060Z,53.13
2022-10-31T17:46:47.032Z,53.13
2022-10-31T17:49:14.098Z,49.58
2022-10-31T17:51:40.979Z,50.93
2022-10-31T17:54:09.067Z,56.92
2022-10-31T17:56:35.985Z,49.97
2022-10-31T17:59:03.360Z,49.03
2022-10-31T18:01:30.464Z,51.45
2022-10-31T18:03:58.065Z,53.03
2022-10-31T18:06:24.935Z,57.70
2022-10-31T18:08:51.904Z,47.65
2022-10-31T18:11:21.973Z,51.22
2022-10-31T18:13:53.841Z,53.95
2022-10-31T18:16:20.737Z,46.63
2022-10-31T18:18:59.155Z,52.20
2022-10-31T18:21:26.598Z,50.53
2022-10-31T18:23:58.100Z,46.30
2022-10-31T18:26:27.007Z,47.17
2022-10-31T18:28:54.550Z,54.73
2022-10-31T18:31:21.793Z,48.95
2022-10-31T18:33:48.695Z,50.22
2022-10-31T18:36:15.613Z,50.53
2022-10-31T18:38:46.740Z,48.67
2022-10-31T18:41:15.138Z,53.13
2022-10-31T18:43:42.583Z,52.03
2022-10-31T18:46:14.733Z,47.60
2022-10-31T18:48:43.959Z,40.28
2022-10-31T18:51:14.279Z,43.20
2022-10-31T18:53:41.448Z,42.67
2022-10-31T18:56:10.890Z,43.25
2022-10-31T18:58:38.002Z,48.92
2022-10-31T19:01:10.821Z,45.97
2022-10-31T19:03:38.862Z,43.95
2022-10-31T19:06:07.448Z,49.10
2022-10-31T19:08:35.855Z,39.95
2022-10-31T19:11:12.744Z,40.53
2022-10-31T19:13:41.346Z,42.92
2022-10-31T19:16:13.879Z,46.03
2022-10-31T19:18:42.222Z,36.50
2022-10-31T19:21:16.102Z,37.05
2022-10-31T19:23:45.012Z,38.33
2022-10-31T19:26:12.845Z,36.35
2022-10-31T19:28:41.965Z,37.60
2022-10-31T19:31:09.689Z,37.20
2022-10-31T19:33:38.262Z,32.33
2022-10-31T19:36:10.485Z,32.63
2022-10-31T19:38:39.967Z,40.35
2022-10-31T19:41:13.613Z,37.35
2022-10-31T19:43:41.043Z,31.13
2022-10-31T19:46:17.537Z,31.20
2022-10-31T19:48:54.978Z,31.90
2022-10-31T19:51:22.478Z,33.38
2022-10-31T19:53:49.787Z,32.58
2022-10-31T19:56:19.606Z,28.97
2022-10-31T19:58:46.824Z,30.65
2022-10-31T20:01:20.715Z,29.95
2022-10-31T20:03:49.056Z,28.38
2022-10-31T20:06:23.100Z,30.38
2022-10-31T20:08:50.442Z,25.70
2022-10-31T20:11:17.575Z,23.67
2022-10-31T20:13:44.709Z,23.45
2022-10-31T20:16:15.075Z,28.50
2022-10-31T20:18:43.410Z,26.52
2022-10-31T20:21:14.341Z,25.47
2022-10-31T20:23:41.686Z,27.77
2022-10-31T20:26:11.577Z,26.65
2022-10-31T20:28:43.269Z,19.48
2022-10-31T20:31:16.373Z,21.38
2022-10-31T20:33:43.571Z,21.60
2022-10-31T20:36:10.636Z,26.23
2022-10-31T20:38:39.530Z,25.85
2022-10-31T20:41:09.373Z,27.02
2022-10-31T20:43:36.754Z,21.75
2022-10-31T20:46:13.361Z,25.17
2022-10-31T20:48:40.717Z,20.15
2022-10-31T20:53:49.613Z,19.33
2022-10-31T20:56:19.835Z,24.00
2022-10-31T20:58:47.240Z,25.83
2022-10-31T21:01:21.269Z,21.05
2022-10-31T21:03:49.750Z,19.65
2022-10-31T21:06:18.738Z,16.95
2022-10-31T21:08:46.135Z,20.42
2022-10-31T21:11:20.430Z,20.20
2022-10-31T21:13:49.292Z,16.13
2022-10-31T21:16:36.195Z,19.20
2022-10-31T21:19:04.721Z,22.70
2022-10-31T21:21:36.104Z,20.90
2022-10-31T21:24:14.955Z,19.40
2022-10-31T21:26:46.379Z,18.90
2022-10-31T21:29:15.231Z,25.70
2022-10-31T21:31:42.962Z,17.73
2022-10-31T21:34:10.364Z,16.40
2022-10-31T21:36:37.794Z,19.53
2022-10-31T21:39:07.050Z,18.30
2022-10-31T21:41:34.140Z,18.45
2022-10-31T21:44:01.014Z,18.67
2022-10-31T21:46:33.328Z,16.88
2022-10-31T21:49:03.644Z,15.93
2022-10-31T21:51:34.401Z,19.65
2022-10-31T21:54:20.729Z,16.00
2022-10-31T21:56:48.144Z,13.07
2022-10-31T21:59:15.044Z,15.95
2022-10-31T22:01:42.111Z,16.43
2022-10-31T22:04:09.442Z,14.30
2022-10-31T22:06:37.120Z,13.70
2022-10-31T22:09:07.017Z,16.52
2022-10-31T22:11:34.656Z,18.90
2022-10-31T22:14:02.677Z,15.77
2022-10-31T22:16:33.418Z,18.80
2022-10-31T22:19:05.068Z,16.52
2022-10-31T22:21:38.769Z,13.07
2022-10-31T22:24:07.726Z,17.67
2022-10-31T22:26:35.536Z,15.23
2022-10-31T22:29:05.623Z,18.98
2022-10-31T22:31:34.059Z,18.83
2022-10-31T22:34:01.466Z,14.23
2022-10-31T22:36:30.623Z,18.00
2022-10-31T22:38:58.476Z,15.43
2022-10-31T22:41:29.027Z,18.10
2022-10-31T22:43:57.175Z,14.73
2022-10-31T22:46:30.142Z,16.95
2022-10-31T22:49:01.169Z,17.55
2022-10-31T22:51:32.444Z,18.57
2022-10-31T22:54:00.041Z,14.10
2022-10-31T22:56:31.205Z,14.57
2022-10-31T22:58:59.223Z,16.38
2022-10-31T23:01:31.412Z,18.52
2022-10-31T23:03:58.762Z,13.93
2022-10-31T23:06:32.460Z,14.32
2022-10-31T23:09:03.175Z,11.85
2022-10-31T23:11:34.524Z,17.77
2022-10-31T23:14:15.740Z,15.73
2022-10-31T23:16:53.897Z,16.07
2022-10-31T23:19:29.712Z,17.05
2022-10-31T23:22:03.862Z,18.02
2022-10-31T23:24:45.357Z,16.38
2022-10-31T23:27:22.359Z,13.48
2022-10-31T23:29:56.477Z,14.67
2022-10-31T23:32:35.546Z,18.15
2022-10-31T23:35:09.247Z,17.65
2022-10-31T23:37:38.408Z,14.52
2022-10-31T23:40:08.054Z,12.15
2022-10-31T23:42:35.010Z,14.43
2022-10-31T23:45:02.078Z,16.33
2022-10-31T23:47:28.957Z,15.40
2022-10-31T23:49:55.825Z,17.60
2022-10-31T23:52:22.694Z,16.67
2022-10-31T23:54:49.633Z,14.37
2022-10-31T23:57:17.272Z,19.70
2022-10-31T23:59:44.371Z,15.07
